createdAt,value
2022-12-09T00:01:51.465Z,-1.18
2022-12-09T00:04:20.196Z,-1.24
2022-12-09T00:07:42.068Z,-1.24
2022-12-09T00:10:23.883Z,-1.32
2022-12-09T00:13:43.659Z,-1.36
2022-12-09T00:16:27.768Z,-1.38
2022-12-09T00:19:53.564Z,-1.33
2022-12-09T00:22:47.385Z,-1.31
2022-12-09T00:25:48.787Z,-1.33
2022-12-09T00:32:07.822Z,-1.39
2022-12-09T00:35:53.297Z,-1.39
2022-12-09T00:38:43.173Z,-1.35
2022-12-09T00:41:42.747Z,-1.34
2022-12-09T00:48:00.176Z,-1.44
2022-12-09T00:50:41.816Z,-1.43
2022-12-09T00:53:50.936Z,-1.43
2022-12-09T00:56:28.137Z,-1.51
2022-12-09T01:03:56.299Z,-1.53
2022-12-09T01:10:37.469Z,-1.52
2022-12-09T01:19:51.698Z,-1.45
2022-12-09T01:22:58.255Z,-1.46
2022-12-09T01:25:49.205Z,-1.37
2022-12-09T01:28:48.576Z,-1.43
2022-12-09T01:31:52.305Z,-1.36
2022-12-09T01:34:21.014Z,-1.38
2022-12-09T01:37:01.467Z,-1.37
2022-12-09T01:40:36.467Z,-1.34
2022-12-09T01:44:08.271Z,-1.24
2022-12-09T01:46:49.721Z,-1.25
2022-12-09T01:54:03.673Z,-1.17
2022-12-09T01:56:50.657Z,-1.15
2022-12-09T02:03:03.443Z,-1.09
2022-12-09T02:06:23.989Z,-1.01
2022-12-09T02:12:46.185Z,-1.01
2022-12-09T02:18:47.114Z,-0.94
2022-12-09T02:28:55.095Z,-0.91
2022-12-09T02:35:41.637Z,-0.92
2022-12-09T02:38:46.855Z,-0.90
2022-12-09T02:41:56.100Z,-0.90
2022-12-09T02:44:37.925Z,-0.93
2022-12-09T02:47:52.783Z,-0.91
2022-12-09T02:51:42.683Z,-0.95
2022-12-09T02:54:33.316Z,-0.95
2022-12-09T02:57:46.930Z,-0.94
2022-12-09T03:00:58.226Z,-0.95
2022-12-09T03:08:15.812Z,-0.98
2022-12-09T03:14:30.892Z,-0.99
2022-12-09T03:21:06.576Z,-0.99
2022-12-09T03:24:23.218Z,-0.96
2022-12-09T03:30:42.638Z,-0.96
2022-12-09T03:37:03.290Z,-0.91
2022-12-09T03:49:48.725Z,-0.94
2022-12-09T03:52:27.620Z,-0.89
2022-12-09T03:55:58.524Z,-0.95
2022-12-09T03:59:03.443Z,-0.91
2022-12-09T04:01:54.020Z,-0.90
2022-12-09T04:04:33.255Z,-0.95
2022-12-09T04:08:03.127Z,-0.91
2022-12-09T04:10:54.052Z,-0.95
2022-12-09T04:16:58.406Z,-0.95
2022-12-09T04:20:00.734Z,-0.89
2022-12-09T04:22:57.236Z,-0.89
2022-12-09T04:26:04.978Z,-0.91
2022-12-09T04:29:56.226Z,-0.90
2022-12-09T04:33:00.870Z,-0.86
2022-12-09T04:36:38.582Z,-0.86
2022-12-09T04:39:43.488Z,-0.81
2022-12-09T04:43:02.497Z,-0.82
2022-12-09T04:46:02.620Z,-0.81
2022-12-09T04:48:52.722Z,-0.82
2022-12-09T05:04:22.460Z,-0.86
2022-12-09T05:07:03.371Z,-0.84
2022-12-09T05:10:18.134Z,-0.81
2022-12-09T05:14:10.769Z,-0.82
2022-12-09T05:17:02.358Z,-0.78
2022-12-09T05:20:04.273Z,-0.78
2022-12-09T05:22:52.604Z,-0.81
2022-12-09T05:26:08.849Z,-0.77
2022-12-09T05:32:48.180Z,-0.81
2022-12-09T05:35:53.690Z,-0.77
2022-12-09T05:38:41.166Z,-0.80
2022-12-09T05:41:52.835Z,-0.80
2022-12-09T05:48:38.384Z,-0.79
